sensor_id;sensor_type;location;lat;lon;timestamp;temperature;humidity
13982;DHT22;7065;50.880;5.502;2024-02-23T00:02:25;5.70;99.90
13982;DHT22;7065;50.880;5.502;2024-02-23T00:04:51;5.70;99.90
13982;DHT22;7065;50.880;5.502;2024-02-23T00:07:17;5.60;99.90
13982;DHT22;7065;50.880;5.502;2024-02-23T00:09:42;5.60;99.90
13982;DHT22;7065;50.880;5.502;2024-02-23T00:12:08;5.50;99.90
13982;DHT22;7065;50.880;5.502;2024-02-23T00:14:34;5.50;99.90
13982;DHT22;7065;50.880;5.502;2024-02-23T00:17:02;5.50;99.90
13982;DHT22;7065;50.880;5.502;2024-02-23T00:19:29;5.50;99.90
13982;DHT22;7065;50.880;5.502;2024-02-23T00:21:55;5.40;99.90
13982;DHT22;7065;50.880;5.502;2024-02-23T00:24:20;5.40;99.90
13982;DHT22;7065;50.880;5.502;2024-02-23T00:26:47;5.40;99.90
13982;DHT22;7065;50.880;5.502;2024-02-23T00:29:13;5.40;99.90
13982;DHT22;7065;50.880;5.502;2024-02-23T00:31:39;5.40;99.90
13982;DHT22;7065;50.880;5.502;2024-02-23T00:34:08;5.40;99.90
13982;DHT22;7065;50.880;5.502;2024-02-23T00:36:39;5.40;99.90
13982;DHT22;7065;50.880;5.502;2024-02-23T00:39:07;5.40;99.90
13982;DHT22;7065;50.880;5.502;2024-02-23T00:41:33;5.40;99.90
13982;DHT22;7065;50.880;5.502;2024-02-23T00:43:59;5.40;99.90
13982;DHT22;7065;50.880;5.502;2024-02-23T00:46:25;5.40;99.90
13982;DHT22;7065;50.880;5.502;2024-02-23T00:48:51;5.30;99.90
13982;DHT22;7065;50.880;5.502;2024-02-23T00:51:16;5.30;99.90
13982;DHT22;7065;50.880;5.502;2024-02-23T00:53:42;5.30;99.90
13982;DHT22;7065;50.880;5.502;2024-02-23T00:56:08;5.20;99.90
13982;DHT22;7065;50.880;5.502;2024-02-23T00:58:33;5.20;99.90
13982;DHT22;7065;50.880;5.502;2024-02-23T01:00:59;5.20;99.90
13982;DHT22;7065;50.880;5.502;2024-02-23T01:03:25;5.20;99.90
13982;DHT22;7065;50.880;5.502;2024-02-23T01:05:51;5.10;99.90
13982;DHT22;7065;50.880;5.502;2024-02-23T01:08:17;5.10;99.90
13982;DHT22;7065;50.880;5.502;2024-02-23T01:10:42;5.10;99.90
13982;DHT22;7065;50.880;5.502;2024-02-23T01:13:08;5.10;99.90
13982;DHT22;7065;50.880;5.502;2024-02-23T01:15:34;5.00;99.90
13982;DHT22;7065;50.880;5.502;2024-02-23T01:17:59;5.00;99.90
13982;DHT22;7065;50.880;5.502;2024-02-23T01:20:25;5.00;99.90
13982;DHT22;7065;50.880;5.502;2024-02-23T01:22:51;5.00;99.90
13982;DHT22;7065;50.880;5.502;2024-02-23T01:25:17;5.00;99.90
13982;DHT22;7065;50.880;5.502;2024-02-23T01:27:43;5.00;99.90
13982;DHT22;7065;50.880;5.502;2024-02-23T01:30:12;5.00;99.90
13982;DHT22;7065;50.880;5.502;2024-02-23T01:32:37;5.00;99.90
13982;DHT22;7065;50.880;5.502;2024-02-23T01:35:05;5.00;99.90
13982;DHT22;7065;50.880;5.502;2024-02-23T01:37:31;5.00;99.90
13982;DHT22;7065;50.880;5.502;2024-02-23T01:39:58;5.10;99.90
13982;DHT22;7065;50.880;5.502;2024-02-23T01:42:24;5.10;99.90
13982;DHT22;7065;50.880;5.502;2024-02-23T01:44:51;5.10;99.90
13982;DHT22;7065;50.880;5.502;2024-02-23T01:47:17;5.20;99.90
13982;DHT22;7065;50.880;5.502;2024-02-23T01:49:44;5.20;99.90
13982;DHT22;7065;50.880;5.502;2024-02-23T01:52:10;5.20;99.90
13982;DHT22;7065;50.880;5.502;2024-02-23T01:54:37;5.20;99.90
13982;DHT22;7065;50.880;5.502;2024-02-23T01:57:03;5.30;99.90
13982;DHT22;7065;50.880;5.502;2024-02-23T01:59:29;5.30;99.90
13982;DHT22;7065;50.880;5.502;2024-02-23T02:01:55;5.30;99.90
13982;DHT22;7065;50.880;5.502;2024-02-23T02:04:21;5.30;99.90
13982;DHT22;7065;50.880;5.502;2024-02-23T02:06:48;5.30;99.90
13982;DHT22;7065;50.880;5.502;2024-02-23T02:09:14;5.30;99.90
13982;DHT22;7065;50.880;5.502;2024-02-23T02:11:47;5.30;99.90
13982;DHT22;7065;50.880;5.502;2024-02-23T02:14:13;5.30;99.90
13982;DHT22;7065;50.880;5.502;2024-02-23T02:16:39;5.40;99.90
13982;DHT22;7065;50.880;5.502;2024-02-23T02:19:04;5.40;99.90
13982;DHT22;7065;50.880;5.502;2024-02-23T02:21:31;5.40;99.90
13982;DHT22;7065;50.880;5.502;2024-02-23T02:23:57;5.40;99.90
13982;DHT22;7065;50.880;5.502;2024-02-23T02:26:23;5.40;99.90
13982;DHT22;7065;50.880;5.502;2024-02-23T02:28:48;5.40;99.90
13982;DHT22;7065;50.880;5.502;2024-02-23T02:31:14;5.40;99.90
13982;DHT22;7065;50.880;5.502;2024-02-23T02:33:41;5.40;99.90
13982;DHT22;7065;50.880;5.502;2024-02-23T02:36:07;5.40;99.90
13982;DHT22;7065;50.880;5.502;2024-02-23T02:38:32;5.40;99.90
13982;DHT22;7065;50.880;5.502;2024-02-23T02:41:01;5.40;99.90
13982;DHT22;7065;50.880;5.502;2024-02-23T02:43:27;5.40;99.90
13982;DHT22;7065;50.880;5.502;2024-02-23T02:45:53;5.40;99.90
13982;DHT22;7065;50.880;5.502;2024-02-23T02:48:19;5.40;99.90
13982;DHT22;7065;50.880;5.502;2024-02-23T02:50:45;5.30;99.90
13982;DHT22;7065;50.880;5.502;2024-02-23T02:53:10;5.20;99.90
13982;DHT22;7065;50.880;5.502;2024-02-23T02:55:41;5.20;99.90
13982;DHT22;7065;50.880;5.502;2024-02-23T02:58:06;5.10;99.90
13982;DHT22;7065;50.880;5.502;2024-02-23T03:00:33;5.20;99.90
13982;DHT22;7065;50.880;5.502;2024-02-23T03:02:58;5.10;99.90
13982;DHT22;7065;50.880;5.502;2024-02-23T03:05:24;5.00;99.90
13982;DHT22;7065;50.880;5.502;2024-02-23T03:07:50;5.00;99.90
13982;DHT22;7065;50.880;5.502;2024-02-23T03:10:16;5.00;99.90
13982;DHT22;7065;50.880;5.502;2024-02-23T03:12:41;5.00;99.90
13982;DHT22;7065;50.880;5.502;2024-02-23T03:15:07;5.10;99.90
13982;DHT22;7065;50.880;5.502;2024-02-23T03:17:35;5.10;99.90
13982;DHT22;7065;50.880;5.502;2024-02-23T03:20:01;5.10;99.90
13982;DHT22;7065;50.880;5.502;2024-02-23T03:22:30;5.10;99.90
13982;DHT22;7065;50.880;5.502;2024-02-23T03:24:57;5.10;99.90
13982;DHT22;7065;50.880;5.502;2024-02-23T03:27:28;5.20;99.90
13982;DHT22;7065;50.880;5.502;2024-02-23T03:29:54;5.20;99.90
13982;DHT22;7065;50.880;5.502;2024-02-23T03:32:20;5.20;99.90
13982;DHT22;7065;50.880;5.502;2024-02-23T03:34:46;5.20;99.90
13982;DHT22;7065;50.880;5.502;2024-02-23T03:37:11;5.20;99.90
13982;DHT22;7065;50.880;5.502;2024-02-23T03:39:37;5.30;99.90
13982;DHT22;7065;50.880;5.502;2024-02-23T03:42:04;5.30;99.90
13982;DHT22;7065;50.880;5.502;2024-02-23T03:44:29;5.30;99.90
13982;DHT22;7065;50.880;5.502;2024-02-23T03:46:57;5.30;99.90
13982;DHT22;7065;50.880;5.502;2024-02-23T03:49:22;5.30;99.90
13982;DHT22;7065;50.880;5.502;2024-02-23T03:51:48;5.40;99.90
13982;DHT22;7065;50.880;5.502;2024-02-23T03:54:14;5.30;99.90
13982;DHT22;7065;50.880;5.502;2024-02-23T03:56:42;5.40;99.90
13982;DHT22;7065;50.880;5.502;2024-02-23T03:59:09;5.40;99.90
13982;DHT22;7065;50.880;5.502;2024-02-23T04:01:38;5.40;99.90
13982;DHT22;7065;50.880;5.502;2024-02-23T04:04:05;5.40;99.90
13982;DHT22;7065;50.880;5.502;2024-02-23T04:06:31;5.40;99.90
13982;DHT22;7065;50.880;5.502;2024-02-23T04:08:57;5.40;99.90
13982;DHT22;7065;50.880;5.502;2024-02-23T04:11:23;5.40;99.90
13982;DHT22;7065;50.880;5.502;2024-02-23T04:13:48;5.40;99.90
13982;DHT22;7065;50.880;5.502;2024-02-23T04:16:14;5.40;99.90
13982;DHT22;7065;50.880;5.502;2024-02-23T04:18:40;5.50;99.90
13982;DHT22;7065;50.880;5.502;2024-02-23T04:21:05;5.50;99.90
13982;DHT22;7065;50.880;5.502;2024-02-23T04:23:31;5.50;99.90
13982;DHT22;7065;50.880;5.502;2024-02-23T04:25:56;5.50;99.90
13982;DHT22;7065;50.880;5.502;2024-02-23T04:28:22;5.50;99.90
13982;DHT22;7065;50.880;5.502;2024-02-23T04:30:48;5.60;99.90
13982;DHT22;7065;50.880;5.502;2024-02-23T04:33:14;5.50;99.90
13982;DHT22;7065;50.880;5.502;2024-02-23T04:35:39;5.60;99.90
13982;DHT22;7065;50.880;5.502;2024-02-23T04:38:05;5.60;99.90
13982;DHT22;7065;50.880;5.502;2024-02-23T04:40:30;5.60;99.90
13982;DHT22;7065;50.880;5.502;2024-02-23T04:42:56;5.60;99.90
13982;DHT22;7065;50.880;5.502;2024-02-23T04:45:22;5.60;99.90
13982;DHT22;7065;50.880;5.502;2024-02-23T04:47:48;5.60;99.90
13982;DHT22;7065;50.880;5.502;2024-02-23T04:50:14;5.60;99.90
13982;DHT22;7065;50.880;5.502;2024-02-23T04:52:40;5.70;99.90
13982;DHT22;7065;50.880;5.502;2024-02-23T04:55:06;5.70;99.90
13982;DHT22;7065;50.880;5.502;2024-02-23T04:57:32;5.70;99.90
13982;DHT22;7065;50.880;5.502;2024-02-23T04:59:58;5.80;99.90
13982;DHT22;7065;50.880;5.502;2024-02-23T05:02:23;5.70;99.90
13982;DHT22;7065;50.880;5.502;2024-02-23T05:04:49;5.80;99.90
13982;DHT22;7065;50.880;5.502;2024-02-23T05:07:15;5.80;99.90
13982;DHT22;7065;50.880;5.502;2024-02-23T05:09:40;5.80;99.90
13982;DHT22;7065;50.880;5.502;2024-02-23T05:12:09;5.80;99.90
13982;DHT22;7065;50.880;5.502;2024-02-23T05:14:35;5.80;99.90
13982;DHT22;7065;50.880;5.502;2024-02-23T05:17:01;5.80;99.90
13982;DHT22;7065;50.880;5.502;2024-02-23T05:19:27;5.80;99.90
13982;DHT22;7065;50.880;5.502;2024-02-23T05:21:52;5.80;99.90
13982;DHT22;7065;50.880;5.502;2024-02-23T05:24:18;5.80;99.90
13982;DHT22;7065;50.880;5.502;2024-02-23T05:26:44;5.80;99.90
13982;DHT22;7065;50.880;5.502;2024-02-23T05:29:10;5.70;99.90
13982;DHT22;7065;50.880;5.502;2024-02-23T05:31:45;5.80;99.90
13982;DHT22;7065;50.880;5.502;2024-02-23T05:34:12;5.80;99.90
13982;DHT22;7065;50.880;5.502;2024-02-23T05:36:38;5.70;99.90
13982;DHT22;7065;50.880;5.502;2024-02-23T05:39:03;5.70;99.90
13982;DHT22;7065;50.880;5.502;2024-02-23T05:41:29;5.70;99.90
13982;DHT22;7065;50.880;5.502;2024-02-23T05:43:55;5.80;99.90
13982;DHT22;7065;50.880;5.502;2024-02-23T05:46:20;5.70;99.90
13982;DHT22;7065;50.880;5.502;2024-02-23T05:48:46;5.70;99.90
13982;DHT22;7065;50.880;5.502;2024-02-23T05:51:12;5.70;99.90
13982;DHT22;7065;50.880;5.502;2024-02-23T05:53:37;5.70;99.90
13982;DHT22;7065;50.880;5.502;2024-02-23T05:56:03;5.70;99.90
13982;DHT22;7065;50.880;5.502;2024-02-23T05:58:29;5.70;99.90
13982;DHT22;7065;50.880;5.502;2024-02-23T06:00:55;5.70;99.90
13982;DHT22;7065;50.880;5.502;2024-02-23T06:03:20;5.70;99.90
13982;DHT22;7065;50.880;5.502;2024-02-23T06:05:47;5.70;99.90
13982;DHT22;7065;50.880;5.502;2024-02-23T06:08:12;5.80;99.90
13982;DHT22;7065;50.880;5.502;2024-02-23T06:10:38;5.70;99.90
13982;DHT22;7065;50.880;5.502;2024-02-23T06:13:04;5.70;99.90
13982;DHT22;7065;50.880;5.502;2024-02-23T06:15:29;5.70;99.90
13982;DHT22;7065;50.880;5.502;2024-02-23T06:17:55;5.70;99.90
13982;DHT22;7065;50.880;5.502;2024-02-23T06:20:21;5.70;99.90
13982;DHT22;7065;50.880;5.502;2024-02-23T06:22:46;5.70;99.90
13982;DHT22;7065;50.880;5.502;2024-02-23T06:25:12;5.60;99.90
13982;DHT22;7065;50.880;5.502;2024-02-23T06:27:38;5.60;99.90
13982;DHT22;7065;50.880;5.502;2024-02-23T06:30:05;5.60;99.90
13982;DHT22;7065;50.880;5.502;2024-02-23T06:32:31;5.60;99.90
13982;DHT22;7065;50.880;5.502;2024-02-23T06:34:56;5.50;99.90
13982;DHT22;7065;50.880;5.502;2024-02-23T06:37:22;5.50;99.90
13982;DHT22;7065;50.880;5.502;2024-02-23T06:39:48;5.50;99.90
13982;DHT22;7065;50.880;5.502;2024-02-23T06:42:20;5.50;99.90
13982;DHT22;7065;50.880;5.502;2024-02-23T06:44:46;5.60;99.90
13982;DHT22;7065;50.880;5.502;2024-02-23T06:47:12;5.50;99.90
13982;DHT22;7065;50.880;5.502;2024-02-23T06:49:42;5.50;99.90
13982;DHT22;7065;50.880;5.502;2024-02-23T06:52:08;5.60;99.90
13982;DHT22;7065;50.880;5.502;2024-02-23T06:54:34;5.60;99.90
13982;DHT22;7065;50.880;5.502;2024-02-23T06:57:00;5.60;99.90
13982;DHT22;7065;50.880;5.502;2024-02-23T06:59:25;5.60;99.90
13982;DHT22;7065;50.880;5.502;2024-02-23T07:01:51;5.60;99.90
13982;DHT22;7065;50.880;5.502;2024-02-23T07:04:18;5.60;99.90
13982;DHT22;7065;50.880;5.502;2024-02-23T07:06:44;5.60;99.90
13982;DHT22;7065;50.880;5.502;2024-02-23T07:09:10;5.60;99.90
13982;DHT22;7065;50.880;5.502;2024-02-23T07:11:38;5.60;99.90
13982;DHT22;7065;50.880;5.502;2024-02-23T07:14:04;5.60;99.90
13982;DHT22;7065;50.880;5.502;2024-02-23T07:16:30;5.60;99.90
13982;DHT22;7065;50.880;5.502;2024-02-23T07:18:55;5.60;99.90
13982;DHT22;7065;50.880;5.502;2024-02-23T07:21:22;5.50;99.90
13982;DHT22;7065;50.880;5.502;2024-02-23T07:23:47;5.50;99.90
13982;DHT22;7065;50.880;5.502;2024-02-23T07:26:13;5.50;99.90
13982;DHT22;7065;50.880;5.502;2024-02-23T07:28:39;5.50;99.90
13982;DHT22;7065;50.880;5.502;2024-02-23T07:31:04;5.60;99.90
13982;DHT22;7065;50.880;5.502;2024-02-23T07:33:30;5.50;99.90
13982;DHT22;7065;50.880;5.502;2024-02-23T07:35:56;5.60;99.90
13982;DHT22;7065;50.880;5.502;2024-02-23T07:38:22;5.60;99.90
13982;DHT22;7065;50.880;5.502;2024-02-23T07:40:48;5.60;99.90
13982;DHT22;7065;50.880;5.502;2024-02-23T07:43:13;5.60;99.90
13982;DHT22;7065;50.880;5.502;2024-02-23T07:45:39;5.60;99.90
13982;DHT22;7065;50.880;5.502;2024-02-23T07:48:05;5.70;99.90
13982;DHT22;7065;50.880;5.502;2024-02-23T07:50:31;5.70;99.90
13982;DHT22;7065;50.880;5.502;2024-02-23T07:52:56;5.70;99.90
13982;DHT22;7065;50.880;5.502;2024-02-23T07:55:22;5.80;99.90
13982;DHT22;7065;50.880;5.502;2024-02-23T07:57:48;5.80;99.90
13982;DHT22;7065;50.880;5.502;2024-02-23T08:00:14;5.70;99.90
13982;DHT22;7065;50.880;5.502;2024-02-23T08:02:40;5.80;99.90
13982;DHT22;7065;50.880;5.502;2024-02-23T08:05:09;5.80;99.90
13982;DHT22;7065;50.880;5.502;2024-02-23T08:07:36;5.80;99.90
13982;DHT22;7065;50.880;5.502;2024-02-23T08:10:02;5.90;99.90
13982;DHT22;7065;50.880;5.502;2024-02-23T08:12:30;5.90;99.90
13982;DHT22;7065;50.880;5.502;2024-02-23T08:14:56;6.00;99.90
13982;DHT22;7065;50.880;5.502;2024-02-23T08:17:21;6.00;99.90
13982;DHT22;7065;50.880;5.502;2024-02-23T08:19:47;6.00;99.90
13982;DHT22;7065;50.880;5.502;2024-02-23T08:22:12;6.00;99.90
13982;DHT22;7065;50.880;5.502;2024-02-23T08:24:38;6.00;99.90
13982;DHT22;7065;50.880;5.502;2024-02-23T08:27:04;6.10;99.90
13982;DHT22;7065;50.880;5.502;2024-02-23T08:29:30;6.10;99.90
13982;DHT22;7065;50.880;5.502;2024-02-23T08:31:56;6.20;99.90
13982;DHT22;7065;50.880;5.502;2024-02-23T08:34:21;6.20;99.90
13982;DHT22;7065;50.880;5.502;2024-02-23T08:36:47;6.30;99.90
13982;DHT22;7065;50.880;5.502;2024-02-23T08:39:12;6.30;99.90
13982;DHT22;7065;50.880;5.502;2024-02-23T08:41:39;6.30;99.90
13982;DHT22;7065;50.880;5.502;2024-02-23T08:44:05;6.40;99.90
13982;DHT22;7065;50.880;5.502;2024-02-23T08:46:31;6.40;99.90
13982;DHT22;7065;50.880;5.502;2024-02-23T08:48:57;6.40;99.90
13982;DHT22;7065;50.880;5.502;2024-02-23T08:51:22;6.40;99.90
13982;DHT22;7065;50.880;5.502;2024-02-23T08:53:48;6.40;99.90
13982;DHT22;7065;50.880;5.502;2024-02-23T08:56:14;6.50;99.90
13982;DHT22;7065;50.880;5.502;2024-02-23T08:58:41;6.50;99.90
13982;DHT22;7065;50.880;5.502;2024-02-23T09:01:07;6.60;99.90
13982;DHT22;7065;50.880;5.502;2024-02-23T09:03:34;6.60;99.90
13982;DHT22;7065;50.880;5.502;2024-02-23T09:06:00;6.60;99.90
13982;DHT22;7065;50.880;5.502;2024-02-23T09:08:26;6.70;99.90
13982;DHT22;7065;50.880;5.502;2024-02-23T09:10:51;6.70;99.90
13982;DHT22;7065;50.880;5.502;2024-02-23T09:13:17;6.80;99.90
13982;DHT22;7065;50.880;5.502;2024-02-23T09:15:42;6.80;99.90
13982;DHT22;7065;50.880;5.502;2024-02-23T09:18:08;6.80;99.90
13982;DHT22;7065;50.880;5.502;2024-02-23T09:20:34;6.80;99.90
13982;DHT22;7065;50.880;5.502;2024-02-23T09:22:59;6.80;99.90
13982;DHT22;7065;50.880;5.502;2024-02-23T09:25:26;6.90;99.90
13982;DHT22;7065;50.880;5.502;2024-02-23T09:27:51;6.80;99.90
13982;DHT22;7065;50.880;5.502;2024-02-23T09:30:17;6.80;99.90
13982;DHT22;7065;50.880;5.502;2024-02-23T09:32:43;6.90;99.90
13982;DHT22;7065;50.880;5.502;2024-02-23T09:35:10;6.90;99.90
13982;DHT22;7065;50.880;5.502;2024-02-23T09:37:35;6.90;99.90
13982;DHT22;7065;50.880;5.502;2024-02-23T09:40:01;6.90;99.90
13982;DHT22;7065;50.880;5.502;2024-02-23T09:42:28;6.90;99.90
13982;DHT22;7065;50.880;5.502;2024-02-23T09:44:58;7.00;99.90
13982;DHT22;7065;50.880;5.502;2024-02-23T09:47:27;7.00;99.90
13982;DHT22;7065;50.880;5.502;2024-02-23T09:49:53;7.00;99.90
13982;DHT22;7065;50.880;5.502;2024-02-23T09:52:19;6.90;99.90
13982;DHT22;7065;50.880;5.502;2024-02-23T09:54:46;6.90;99.90
13982;DHT22;7065;50.880;5.502;2024-02-23T09:57:11;6.90;99.90
13982;DHT22;7065;50.880;5.502;2024-02-23T09:59:38;7.00;99.90
13982;DHT22;7065;50.880;5.502;2024-02-23T10:02:11;7.10;99.90
13982;DHT22;7065;50.880;5.502;2024-02-23T10:04:40;7.10;99.90
13982;DHT22;7065;50.880;5.502;2024-02-23T10:07:07;7.20;99.90
13982;DHT22;7065;50.880;5.502;2024-02-23T10:09:32;7.20;99.90
13982;DHT22;7065;50.880;5.502;2024-02-23T10:11:58;7.20;99.90
13982;DHT22;7065;50.880;5.502;2024-02-23T10:14:24;7.30;99.90
13982;DHT22;7065;50.880;5.502;2024-02-23T10:16:50;7.40;99.90
13982;DHT22;7065;50.880;5.502;2024-02-23T10:19:19;7.40;99.90
13982;DHT22;7065;50.880;5.502;2024-02-23T10:21:46;7.50;99.90
13982;DHT22;7065;50.880;5.502;2024-02-23T10:24:11;7.50;99.90
13982;DHT22;7065;50.880;5.502;2024-02-23T10:26:37;7.60;99.90
13982;DHT22;7065;50.880;5.502;2024-02-23T10:29:03;7.60;99.90
13982;DHT22;7065;50.880;5.502;2024-02-23T10:31:31;7.80;99.90
13982;DHT22;7065;50.880;5.502;2024-02-23T10:33:59;7.90;99.90
13982;DHT22;7065;50.880;5.502;2024-02-23T10:36:28;8.00;99.90
13982;DHT22;7065;50.880;5.502;2024-02-23T10:38:57;8.10;99.90
13982;DHT22;7065;50.880;5.502;2024-02-23T10:41:25;8.10;99.90
13982;DHT22;7065;50.880;5.502;2024-02-23T10:43:51;8.10;99.90
13982;DHT22;7065;50.880;5.502;2024-02-23T10:46:18;8.10;99.90
13982;DHT22;7065;50.880;5.502;2024-02-23T10:48:45;8.10;99.90
13982;DHT22;7065;50.880;5.502;2024-02-23T10:51:13;8.00;99.90
13982;DHT22;7065;50.880;5.502;2024-02-23T10:53:39;7.90;99.90
13982;DHT22;7065;50.880;5.502;2024-02-23T10:56:07;7.90;99.90
13982;DHT22;7065;50.880;5.502;2024-02-23T10:58:33;7.90;99.90
13982;DHT22;7065;50.880;5.502;2024-02-23T11:01:03;7.90;99.90
13982;DHT22;7065;50.880;5.502;2024-02-23T11:03:31;7.90;99.90
13982;DHT22;7065;50.880;5.502;2024-02-23T11:05:59;7.80;99.90
13982;DHT22;7065;50.880;5.502;2024-02-23T11:08:28;7.90;99.90
13982;DHT22;7065;50.880;5.502;2024-02-23T11:10:54;7.90;99.90
13982;DHT22;7065;50.880;5.502;2024-02-23T11:13:30;7.90;99.90
13982;DHT22;7065;50.880;5.502;2024-02-23T11:16:07;8.00;99.90
13982;DHT22;7065;50.880;5.502;2024-02-23T11:18:35;7.90;99.90
13982;DHT22;7065;50.880;5.502;2024-02-23T11:21:03;7.80;99.90
13982;DHT22;7065;50.880;5.502;2024-02-23T11:24:01;7.90;99.90
13982;DHT22;7065;50.880;5.502;2024-02-23T11:26:27;8.00;99.90
13982;DHT22;7065;50.880;5.502;2024-02-23T11:28:53;8.10;99.90
13982;DHT22;7065;50.880;5.502;2024-02-23T11:31:21;8.20;99.90
13982;DHT22;7065;50.880;5.502;2024-02-23T11:33:54;8.30;99.90
13982;DHT22;7065;50.880;5.502;2024-02-23T11:36:29;8.30;99.90
13982;DHT22;7065;50.880;5.502;2024-02-23T11:39:00;8.40;99.90
13982;DHT22;7065;50.880;5.502;2024-02-23T11:41:27;8.40;99.90
13982;DHT22;7065;50.880;5.502;2024-02-23T11:43:54;8.30;99.90
13982;DHT22;7065;50.880;5.502;2024-02-23T11:46:26;8.30;99.90
13982;DHT22;7065;50.880;5.502;2024-02-23T11:48:52;8.30;99.90
13982;DHT22;7065;50.880;5.502;2024-02-23T11:51:22;8.40;99.90
13982;DHT22;7065;50.880;5.502;2024-02-23T11:53:49;8.40;99.90
13982;DHT22;7065;50.880;5.502;2024-02-23T11:56:14;8.50;99.90
13982;DHT22;7065;50.880;5.502;2024-02-23T11:58:41;8.40;99.90
13982;DHT22;7065;50.880;5.502;2024-02-23T12:01:07;8.30;99.90
13982;DHT22;7065;50.880;5.502;2024-02-23T12:03:33;8.20;99.90
13982;DHT22;7065;50.880;5.502;2024-02-23T12:06:00;8.30;99.90
13982;DHT22;7065;50.880;5.502;2024-02-23T12:08:27;8.40;99.90
13982;DHT22;7065;50.880;5.502;2024-02-23T12:10:56;8.40;99.90
13982;DHT22;7065;50.880;5.502;2024-02-23T12:13:22;8.30;99.90
13982;DHT22;7065;50.880;5.502;2024-02-23T12:15:49;8.40;99.90
13982;DHT22;7065;50.880;5.502;2024-02-23T12:18:20;8.40;99.90
13982;DHT22;7065;50.880;5.502;2024-02-23T12:20:48;8.50;99.90
13982;DHT22;7065;50.880;5.502;2024-02-23T12:23:14;8.50;99.90
13982;DHT22;7065;50.880;5.502;2024-02-23T12:25:40;8.50;99.90
13982;DHT22;7065;50.880;5.502;2024-02-23T12:28:06;8.50;99.90
13982;DHT22;7065;50.880;5.502;2024-02-23T12:30:32;8.40;99.90
13982;DHT22;7065;50.880;5.502;2024-02-23T12:33:07;8.40;99.90
13982;DHT22;7065;50.880;5.502;2024-02-23T12:35:34;8.50;99.90
13982;DHT22;7065;50.880;5.502;2024-02-23T12:38:01;8.50;99.90
13982;DHT22;7065;50.880;5.502;2024-02-23T12:40:27;8.70;99.90
13982;DHT22;7065;50.880;5.502;2024-02-23T12:42:53;8.70;99.90
13982;DHT22;7065;50.880;5.502;2024-02-23T12:45:19;8.90;99.90
13982;DHT22;7065;50.880;5.502;2024-02-23T12:47:44;8.90;99.90
13982;DHT22;7065;50.880;5.502;2024-02-23T12:50:10;9.00;99.90
13982;DHT22;7065;50.880;5.502;2024-02-23T12:52:36;9.00;99.90
13982;DHT22;7065;50.880;5.502;2024-02-23T12:55:02;9.00;99.90
13982;DHT22;7065;50.880;5.502;2024-02-23T12:57:28;9.00;99.90
13982;DHT22;7065;50.880;5.502;2024-02-23T12:59:54;9.10;99.90
13982;DHT22;7065;50.880;5.502;2024-02-23T13:02:20;9.00;99.90
13982;DHT22;7065;50.880;5.502;2024-02-23T13:04:46;8.90;99.90
13982;DHT22;7065;50.880;5.502;2024-02-23T13:07:17;8.80;99.90
13982;DHT22;7065;50.880;5.502;2024-02-23T13:09:43;8.70;99.90
13982;DHT22;7065;50.880;5.502;2024-02-23T13:12:09;8.80;99.90
13982;DHT22;7065;50.880;5.502;2024-02-23T13:14:35;8.80;99.90
13982;DHT22;7065;50.880;5.502;2024-02-23T13:17:00;8.80;99.90
13982;DHT22;7065;50.880;5.502;2024-02-23T13:19:26;8.80;99.90
13982;DHT22;7065;50.880;5.502;2024-02-23T13:21:52;9.00;99.90
13982;DHT22;7065;50.880;5.502;2024-02-23T13:24:18;8.90;99.90
13982;DHT22;7065;50.880;5.502;2024-02-23T13:26:44;8.90;99.90
13982;DHT22;7065;50.880;5.502;2024-02-23T13:29:10;8.80;99.90
13982;DHT22;7065;50.880;5.502;2024-02-23T13:31:36;8.80;99.90
13982;DHT22;7065;50.880;5.502;2024-02-23T13:34:03;8.80;99.90
13982;DHT22;7065;50.880;5.502;2024-02-23T13:36:29;9.00;99.90
13982;DHT22;7065;50.880;5.502;2024-02-23T13:38:55;9.10;99.90
13982;DHT22;7065;50.880;5.502;2024-02-23T13:41:20;9.10;99.90
13982;DHT22;7065;50.880;5.502;2024-02-23T13:43:46;9.10;99.90
13982;DHT22;7065;50.880;5.502;2024-02-23T13:46:12;9.10;99.90
13982;DHT22;7065;50.880;5.502;2024-02-23T13:48:37;9.10;99.90
13982;DHT22;7065;50.880;5.502;2024-02-23T13:51:03;9.00;99.90
13982;DHT22;7065;50.880;5.502;2024-02-23T13:53:31;9.00;99.90
13982;DHT22;7065;50.880;5.502;2024-02-23T13:55:58;9.00;99.90
13982;DHT22;7065;50.880;5.502;2024-02-23T13:58:24;8.90;99.90
13982;DHT22;7065;50.880;5.502;2024-02-23T14:00:49;8.90;99.90
13982;DHT22;7065;50.880;5.502;2024-02-23T14:03:18;8.80;99.90
13982;DHT22;7065;50.880;5.502;2024-02-23T14:05:45;8.80;99.90
13982;DHT22;7065;50.880;5.502;2024-02-23T14:08:11;8.70;99.90
13982;DHT22;7065;50.880;5.502;2024-02-23T14:10:37;8.50;99.90
13982;DHT22;7065;50.880;5.502;2024-02-23T14:13:03;8.40;99.90
13982;DHT22;7065;50.880;5.502;2024-02-23T14:15:29;8.40;99.90
13982;DHT22;7065;50.880;5.502;2024-02-23T14:17:55;8.40;99.90
13982;DHT22;7065;50.880;5.502;2024-02-23T14:20:20;8.30;99.90
13982;DHT22;7065;50.880;5.502;2024-02-23T14:22:46;8.40;99.90
13982;DHT22;7065;50.880;5.502;2024-02-23T14:25:12;8.40;99.90
13982;DHT22;7065;50.880;5.502;2024-02-23T14:27:37;8.50;99.90
13982;DHT22;7065;50.880;5.502;2024-02-23T14:30:03;8.50;99.90
13982;DHT22;7065;50.880;5.502;2024-02-23T14:32:29;8.50;99.90
13982;DHT22;7065;50.880;5.502;2024-02-23T14:34:56;8.50;99.90
13982;DHT22;7065;50.880;5.502;2024-02-23T14:37:22;8.50;99.90
13982;DHT22;7065;50.880;5.502;2024-02-23T14:39:48;8.40;99.90
13982;DHT22;7065;50.880;5.502;2024-02-23T14:42:14;8.40;99.90
13982;DHT22;7065;50.880;5.502;2024-02-23T14:44:40;8.40;99.90
13982;DHT22;7065;50.880;5.502;2024-02-23T14:47:06;8.40;99.90
13982;DHT22;7065;50.880;5.502;2024-02-23T14:49:32;8.50;99.90
13982;DHT22;7065;50.880;5.502;2024-02-23T14:51:58;8.50;99.90
13982;DHT22;7065;50.880;5.502;2024-02-23T14:54:24;8.60;99.90
13982;DHT22;7065;50.880;5.502;2024-02-23T14:56:49;8.50;99.90
13982;DHT22;7065;50.880;5.502;2024-02-23T14:59:15;8.50;99.90
13982;DHT22;7065;50.880;5.502;2024-02-23T15:01:41;8.60;99.90
13982;DHT22;7065;50.880;5.502;2024-02-23T15:04:07;8.60;99.90
13982;DHT22;7065;50.880;5.502;2024-02-23T15:06:33;8.60;99.90
13982;DHT22;7065;50.880;5.502;2024-02-23T15:09:00;8.60;99.90
13982;DHT22;7065;50.880;5.502;2024-02-23T15:11:26;8.60;99.90
13982;DHT22;7065;50.880;5.502;2024-02-23T15:13:52;8.60;99.90
13982;DHT22;7065;50.880;5.502;2024-02-23T15:16:24;8.60;99.90
13982;DHT22;7065;50.880;5.502;2024-02-23T15:18:50;8.60;99.90
13982;DHT22;7065;50.880;5.502;2024-02-23T15:21:15;8.60;99.90
13982;DHT22;7065;50.880;5.502;2024-02-23T15:23:43;8.60;99.90
13982;DHT22;7065;50.880;5.502;2024-02-23T15:26:10;8.60;99.90
13982;DHT22;7065;50.880;5.502;2024-02-23T15:28:37;8.60;99.90
13982;DHT22;7065;50.880;5.502;2024-02-23T15:31:03;8.60;99.90
13982;DHT22;7065;50.880;5.502;2024-02-23T15:33:28;8.60;99.90
13982;DHT22;7065;50.880;5.502;2024-02-23T15:35:55;8.60;99.90
13982;DHT22;7065;50.880;5.502;2024-02-23T15:38:20;8.70;99.90
13982;DHT22;7065;50.880;5.502;2024-02-23T15:40:46;8.70;99.90
13982;DHT22;7065;50.880;5.502;2024-02-23T15:43:14;8.70;99.90
13982;DHT22;7065;50.880;5.502;2024-02-23T15:45:39;8.60;99.90
13982;DHT22;7065;50.880;5.502;2024-02-23T15:48:05;8.60;99.90
13982;DHT22;7065;50.880;5.502;2024-02-23T15:50:31;8.60;99.90
13982;DHT22;7065;50.880;5.502;2024-02-23T15:52:57;8.70;99.90
13982;DHT22;7065;50.880;5.502;2024-02-23T15:55:23;8.70;99.90
13982;DHT22;7065;50.880;5.502;2024-02-23T15:57:49;8.70;99.90